sensor_id;sensor_type;location;lat;lon;timestamp;P1;durP1;ratioP1;P2;durP2;ratioP2
3133;SDS011;1577;49.912;10.924;2022-09-17T00:01:03;2.70;;;2.10;;
3133;SDS011;1577;49.912;10.924;2022-09-17T00:03:30;4.37;;;2.30;;
3133;SDS011;1577;49.912;10.924;2022-09-17T00:06:01;2.80;;;2.00;;
3133;SDS011;1577;49.912;10.924;2022-09-17T00:08:27;3.07;;;2.50;;
3133;SDS011;1577;49.912;10.924;2022-09-17T00:10:53;5.13;;;2.40;;
3133;SDS011;1577;49.912;10.924;2022-09-17T00:13:19;2.57;;;2.00;;
3133;SDS011;1577;49.912;10.924;2022-09-17T00:15:45;2.90;;;2.07;;
3133;SDS011;1577;49.912;10.924;2022-09-17T00:18:12;3.10;;;2.30;;
3133;SDS011;1577;49.912;10.924;2022-09-17T00:20:39;2.27;;;2.07;;
3133;SDS011;1577;49.912;10.924;2022-09-17T00:23:05;2.70;;;2.00;;
3133;SDS011;1577;49.912;10.924;2022-09-17T00:25:32;3.47;;;2.07;;
3133;SDS011;1577;49.912;10.924;2022-09-17T00:27:58;2.40;;;2.20;;
3133;SDS011;1577;49.912;10.924;2022-09-17T00:30:24;2.80;;;2.30;;
3133;SDS011;1577;49.912;10.924;2022-09-17T00:32:50;3.23;;;2.13;;
3133;SDS011;1577;49.912;10.924;2022-09-17T00:35:17;3.70;;;2.40;;
3133;SDS011;1577;49.912;10.924;2022-09-17T00:37:43;3.50;;;2.00;;
3133;SDS011;1577;49.912;10.924;2022-09-17T00:40:09;2.63;;;2.17;;
3133;SDS011;1577;49.912;10.924;2022-09-17T00:42:35;3.70;;;2.33;;
3133;SDS011;1577;49.912;10.924;2022-09-17T00:45:01;2.97;;;2.10;;
3133;SDS011;1577;49.912;10.924;2022-09-17T00:50:15;3.60;;;1.97;;
3133;SDS011;1577;49.912;10.924;2022-09-17T00:52:40;4.47;;;2.43;;
3133;SDS011;1577;49.912;10.924;2022-09-17T00:55:12;4.30;;;1.90;;
3133;SDS011;1577;49.912;10.924;2022-09-17T00:57:40;7.30;;;2.37;;
3133;SDS011;1577;49.912;10.924;2022-09-17T01:00:07;4.03;;;2.00;;
3133;SDS011;1577;49.912;10.924;2022-09-17T01:02:34;6.37;;;2.53;;
3133;SDS011;1577;49.912;10.924;2022-09-17T01:05:00;5.07;;;2.20;;
3133;SDS011;1577;49.912;10.924;2022-09-17T01:07:30;4.23;;;2.80;;
3133;SDS011;1577;49.912;10.924;2022-09-17T01:10:04;5.77;;;2.40;;
3133;SDS011;1577;49.912;10.924;2022-09-17T01:18:13;7.33;;;2.97;;
3133;SDS011;1577;49.912;10.924;2022-09-17T01:26:18;6.53;;;3.40;;
3133;SDS011;1577;49.912;10.924;2022-09-17T01:29:00;6.73;;;3.20;;
3133;SDS011;1577;49.912;10.924;2022-09-17T01:39:49;8.57;;;3.87;;
3133;SDS011;1577;49.912;10.924;2022-09-17T01:42:23;6.20;;;3.60;;
3133;SDS011;1577;49.912;10.924;2022-09-17T01:45:14;7.30;;;4.00;;
3133;SDS011;1577;49.912;10.924;2022-09-17T01:47:37;6.10;;;3.40;;
3133;SDS011;1577;49.912;10.924;2022-09-17T01:50:18;7.70;;;4.13;;
3133;SDS011;1577;49.912;10.924;2022-09-17T01:52:46;4.50;;;3.60;;
3133;SDS011;1577;49.912;10.924;2022-09-17T01:55:14;6.00;;;3.60;;
3133;SDS011;1577;49.912;10.924;2022-09-17T01:57:48;8.93;;;3.60;;
3133;SDS011;1577;49.912;10.924;2022-09-17T02:00:15;7.60;;;3.77;;
3133;SDS011;1577;49.912;10.924;2022-09-17T02:02:47;6.43;;;3.70;;
3133;SDS011;1577;49.912;10.924;2022-09-17T02:05:16;8.07;;;4.13;;
3133;SDS011;1577;49.912;10.924;2022-09-17T02:07:44;6.53;;;3.97;;
3133;SDS011;1577;49.912;10.924;2022-09-17T02:10:17;4.40;;;3.27;;
3133;SDS011;1577;49.912;10.924;2022-09-17T02:12:45;6.33;;;3.40;;
3133;SDS011;1577;49.912;10.924;2022-09-17T02:15:13;9.83;;;3.80;;
3133;SDS011;1577;49.912;10.924;2022-09-17T02:17:46;6.63;;;3.90;;
3133;SDS011;1577;49.912;10.924;2022-09-17T02:20:13;12.50;;;3.47;;
3133;SDS011;1577;49.912;10.924;2022-09-17T02:23:03;7.90;;;3.63;;
3133;SDS011;1577;49.912;10.924;2022-09-17T02:25:35;7.70;;;3.50;;
3133;SDS011;1577;49.912;10.924;2022-09-17T02:28:15;4.70;;;2.80;;
3133;SDS011;1577;49.912;10.924;2022-09-17T02:30:42;7.07;;;3.37;;
3133;SDS011;1577;49.912;10.924;2022-09-17T02:33:08;8.13;;;3.73;;
3133;SDS011;1577;49.912;10.924;2022-09-17T02:35:35;4.10;;;3.00;;
3133;SDS011;1577;49.912;10.924;2022-09-17T02:38:03;5.80;;;3.17;;
3133;SDS011;1577;49.912;10.924;2022-09-17T02:40:31;5.83;;;3.00;;
3133;SDS011;1577;49.912;10.924;2022-09-17T02:45:40;11.80;;;3.17;;
3133;SDS011;1577;49.912;10.924;2022-09-17T02:55:52;3.70;;;2.97;;
3133;SDS011;1577;49.912;10.924;2022-09-17T02:58:29;6.73;;;2.70;;
3133;SDS011;1577;49.912;10.924;2022-09-17T03:00:56;4.77;;;3.10;;
3133;SDS011;1577;49.912;10.924;2022-09-17T03:03:35;4.13;;;2.63;;
3133;SDS011;1577;49.912;10.924;2022-09-17T03:06:03;7.13;;;3.10;;
3133;SDS011;1577;49.912;10.924;2022-09-17T03:08:34;7.47;;;3.77;;
3133;SDS011;1577;49.912;10.924;2022-09-17T03:11:02;5.80;;;2.90;;
3133;SDS011;1577;49.912;10.924;2022-09-17T03:13:29;6.93;;;3.50;;
3133;SDS011;1577;49.912;10.924;2022-09-17T03:15:55;5.10;;;3.97;;
3133;SDS011;1577;49.912;10.924;2022-09-17T03:18:21;8.50;;;3.57;;
3133;SDS011;1577;49.912;10.924;2022-09-17T03:20:48;5.43;;;3.00;;
3133;SDS011;1577;49.912;10.924;2022-09-17T03:23:14;6.90;;;3.20;;
3133;SDS011;1577;49.912;10.924;2022-09-17T03:25:40;6.03;;;2.80;;
3133;SDS011;1577;49.912;10.924;2022-09-17T03:28:06;5.83;;;2.90;;
3133;SDS011;1577;49.912;10.924;2022-09-17T03:30:32;5.13;;;3.30;;
3133;SDS011;1577;49.912;10.924;2022-09-17T03:32:58;7.80;;;4.20;;
3133;SDS011;1577;49.912;10.924;2022-09-17T03:35:24;4.30;;;2.80;;
3133;SDS011;1577;49.912;10.924;2022-09-17T03:37:50;5.93;;;2.77;;
3133;SDS011;1577;49.912;10.924;2022-09-17T03:40:16;6.37;;;4.53;;
3133;SDS011;1577;49.912;10.924;2022-09-17T03:42:43;8.40;;;3.00;;
3133;SDS011;1577;49.912;10.924;2022-09-17T03:45:09;3.90;;;3.03;;
3133;SDS011;1577;49.912;10.924;2022-09-17T03:47:36;4.07;;;3.03;;
3133;SDS011;1577;49.912;10.924;2022-09-17T03:50:02;6.33;;;2.40;;
3133;SDS011;1577;49.912;10.924;2022-09-17T03:52:28;4.83;;;3.00;;
3133;SDS011;1577;49.912;10.924;2022-09-17T03:54:54;3.97;;;2.80;;
3133;SDS011;1577;49.912;10.924;2022-09-17T03:57:20;8.17;;;2.97;;
3133;SDS011;1577;49.912;10.924;2022-09-17T03:59:47;8.00;;;3.13;;
3133;SDS011;1577;49.912;10.924;2022-09-17T04:02:13;5.93;;;2.90;;
3133;SDS011;1577;49.912;10.924;2022-09-17T04:04:39;6.60;;;2.57;;
3133;SDS011;1577;49.912;10.924;2022-09-17T04:07:05;4.23;;;3.83;;
3133;SDS011;1577;49.912;10.924;2022-09-17T04:09:31;4.33;;;3.40;;
3133;SDS011;1577;49.912;10.924;2022-09-17T04:11:57;8.47;;;3.13;;
3133;SDS011;1577;49.912;10.924;2022-09-17T04:14:23;7.17;;;2.80;;
3133;SDS011;1577;49.912;10.924;2022-09-17T04:16:49;7.87;;;2.73;;
3133;SDS011;1577;49.912;10.924;2022-09-17T04:19:15;3.63;;;2.63;;
3133;SDS011;1577;49.912;10.924;2022-09-17T04:21:41;6.43;;;3.13;;
3133;SDS011;1577;49.912;10.924;2022-09-17T04:24:07;7.47;;;3.37;;
3133;SDS011;1577;49.912;10.924;2022-09-17T04:26:33;5.33;;;3.00;;
3133;SDS011;1577;49.912;10.924;2022-09-17T04:28:59;3.53;;;3.10;;
3133;SDS011;1577;49.912;10.924;2022-09-17T04:31:25;4.93;;;3.23;;
3133;SDS011;1577;49.912;10.924;2022-09-17T04:33:51;6.00;;;3.50;;
3133;SDS011;1577;49.912;10.924;2022-09-17T04:36:17;5.67;;;3.30;;
3133;SDS011;1577;49.912;10.924;2022-09-17T04:38:46;4.10;;;3.57;;
3133;SDS011;1577;49.912;10.924;2022-09-17T04:41:12;6.53;;;3.23;;
3133;SDS011;1577;49.912;10.924;2022-09-17T04:43:38;5.27;;;2.77;;
3133;SDS011;1577;49.912;10.924;2022-09-17T04:46:04;6.03;;;3.40;;
3133;SDS011;1577;49.912;10.924;2022-09-17T04:48:30;4.53;;;2.43;;
3133;SDS011;1577;49.912;10.924;2022-09-17T04:50:56;3.60;;;2.70;;
3133;SDS011;1577;49.912;10.924;2022-09-17T04:53:22;3.77;;;2.20;;
3133;SDS011;1577;49.912;10.924;2022-09-17T04:55:48;4.67;;;2.73;;
3133;SDS011;1577;49.912;10.924;2022-09-17T04:58:14;7.13;;;3.50;;
3133;SDS011;1577;49.912;10.924;2022-09-17T05:00:40;5.73;;;3.53;;
3133;SDS011;1577;49.912;10.924;2022-09-17T05:03:06;5.77;;;2.67;;
3133;SDS011;1577;49.912;10.924;2022-09-17T05:05:32;8.40;;;2.60;;
3133;SDS011;1577;49.912;10.924;2022-09-17T05:07:58;4.67;;;3.23;;
3133;SDS011;1577;49.912;10.924;2022-09-17T05:10:25;7.07;;;2.63;;
3133;SDS011;1577;49.912;10.924;2022-09-17T05:12:51;4.40;;;3.33;;
3133;SDS011;1577;49.912;10.924;2022-09-17T05:15:18;5.40;;;2.90;;
3133;SDS011;1577;49.912;10.924;2022-09-17T05:17:44;5.20;;;2.70;;
3133;SDS011;1577;49.912;10.924;2022-09-17T05:20:10;3.93;;;2.77;;
3133;SDS011;1577;49.912;10.924;2022-09-17T05:22:40;4.47;;;3.10;;
3133;SDS011;1577;49.912;10.924;2022-09-17T05:25:07;3.10;;;2.60;;
3133;SDS011;1577;49.912;10.924;2022-09-17T05:27:33;4.63;;;2.73;;
3133;SDS011;1577;49.912;10.924;2022-09-17T05:29:59;5.23;;;2.27;;
3133;SDS011;1577;49.912;10.924;2022-09-17T05:32:25;2.20;;;2.00;;
3133;SDS011;1577;49.912;10.924;2022-09-17T05:34:51;4.17;;;2.30;;
3133;SDS011;1577;49.912;10.924;2022-09-17T05:37:16;3.13;;;2.20;;
3133;SDS011;1577;49.912;10.924;2022-09-17T05:39:42;4.90;;;1.67;;
3133;SDS011;1577;49.912;10.924;2022-09-17T05:42:08;3.63;;;1.60;;
3133;SDS011;1577;49.912;10.924;2022-09-17T05:44:34;2.67;;;1.20;;
3133;SDS011;1577;49.912;10.924;2022-09-17T05:47:00;3.40;;;1.60;;
3133;SDS011;1577;49.912;10.924;2022-09-17T05:49:26;4.13;;;1.90;;
3133;SDS011;1577;49.912;10.924;2022-09-17T05:51:52;3.60;;;2.20;;
3133;SDS011;1577;49.912;10.924;2022-09-17T05:54:18;2.80;;;1.50;;
3133;SDS011;1577;49.912;10.924;2022-09-17T05:56:44;2.43;;;1.40;;
3133;SDS011;1577;49.912;10.924;2022-09-17T05:59:10;3.70;;;1.90;;
3133;SDS011;1577;49.912;10.924;2022-09-17T06:01:36;5.63;;;1.70;;
3133;SDS011;1577;49.912;10.924;2022-09-17T06:04:02;4.57;;;2.17;;
3133;SDS011;1577;49.912;10.924;2022-09-17T06:06:29;3.20;;;2.70;;
3133;SDS011;1577;49.912;10.924;2022-09-17T06:08:57;3.10;;;1.90;;
3133;SDS011;1577;49.912;10.924;2022-09-17T06:11:23;3.20;;;1.70;;
3133;SDS011;1577;49.912;10.924;2022-09-17T06:13:53;3.10;;;2.30;;
3133;SDS011;1577;49.912;10.924;2022-09-17T06:16:19;2.50;;;1.73;;
3133;SDS011;1577;49.912;10.924;2022-09-17T06:18:45;6.23;;;2.10;;
3133;SDS011;1577;49.912;10.924;2022-09-17T06:21:11;3.70;;;3.13;;
3133;SDS011;1577;49.912;10.924;2022-09-17T06:23:38;2.93;;;2.33;;
3133;SDS011;1577;49.912;10.924;2022-09-17T06:26:04;3.80;;;2.73;;
3133;SDS011;1577;49.912;10.924;2022-09-17T06:28:31;6.17;;;3.00;;
3133;SDS011;1577;49.912;10.924;2022-09-17T06:31:00;3.97;;;3.00;;
3133;SDS011;1577;49.912;10.924;2022-09-17T06:33:26;3.43;;;2.73;;
3133;SDS011;1577;49.912;10.924;2022-09-17T06:35:56;5.87;;;2.60;;
3133;SDS011;1577;49.912;10.924;2022-09-17T06:38:24;4.50;;;2.60;;
3133;SDS011;1577;49.912;10.924;2022-09-17T06:40:50;3.70;;;2.40;;
3133;SDS011;1577;49.912;10.924;2022-09-17T06:43:18;3.97;;;2.20;;
3133;SDS011;1577;49.912;10.924;2022-09-17T06:45:50;4.37;;;3.00;;
3133;SDS011;1577;49.912;10.924;2022-09-17T06:48:16;6.00;;;2.53;;
3133;SDS011;1577;49.912;10.924;2022-09-17T06:50:42;3.70;;;1.90;;
3133;SDS011;1577;49.912;10.924;2022-09-17T06:53:08;4.93;;;3.30;;
3133;SDS011;1577;49.912;10.924;2022-09-17T06:55:34;3.63;;;2.17;;
3133;SDS011;1577;49.912;10.924;2022-09-17T06:58:00;4.00;;;2.77;;
3133;SDS011;1577;49.912;10.924;2022-09-17T07:00:26;3.07;;;2.63;;
3133;SDS011;1577;49.912;10.924;2022-09-17T07:02:59;7.67;;;2.27;;
3133;SDS011;1577;49.912;10.924;2022-09-17T07:05:25;3.73;;;2.40;;
3133;SDS011;1577;49.912;10.924;2022-09-17T07:07:52;3.33;;;2.33;;
3133;SDS011;1577;49.912;10.924;2022-09-17T07:10:18;2.80;;;2.30;;
3133;SDS011;1577;49.912;10.924;2022-09-17T07:12:44;4.57;;;1.90;;
3133;SDS011;1577;49.912;10.924;2022-09-17T07:15:10;7.27;;;2.40;;
3133;SDS011;1577;49.912;10.924;2022-09-17T07:17:39;5.20;;;2.10;;
3133;SDS011;1577;49.912;10.924;2022-09-17T07:20:06;8.00;;;3.30;;
3133;SDS011;1577;49.912;10.924;2022-09-17T07:22:33;2.70;;;1.80;;
3133;SDS011;1577;49.912;10.924;2022-09-17T07:24:58;5.00;;;2.60;;
3133;SDS011;1577;49.912;10.924;2022-09-17T07:27:28;4.57;;;2.03;;
3133;SDS011;1577;49.912;10.924;2022-09-17T07:29:54;3.17;;;2.63;;
3133;SDS011;1577;49.912;10.924;2022-09-17T07:32:20;3.90;;;2.47;;
3133;SDS011;1577;49.912;10.924;2022-09-17T07:34:46;4.30;;;1.97;;
3133;SDS011;1577;49.912;10.924;2022-09-17T07:37:13;5.80;;;2.30;;
3133;SDS011;1577;49.912;10.924;2022-09-17T07:39:39;6.60;;;2.70;;
3133;SDS011;1577;49.912;10.924;2022-09-17T07:42:06;7.30;;;3.17;;
3133;SDS011;1577;49.912;10.924;2022-09-17T07:44:32;6.30;;;3.20;;
3133;SDS011;1577;49.912;10.924;2022-09-17T07:46:58;5.20;;;2.60;;
3133;SDS011;1577;49.912;10.924;2022-09-17T07:49:24;4.40;;;2.93;;
3133;SDS011;1577;49.912;10.924;2022-09-17T07:51:50;3.27;;;2.47;;
3133;SDS011;1577;49.912;10.924;2022-09-17T07:54:18;5.33;;;3.30;;
3133;SDS011;1577;49.912;10.924;2022-09-17T07:56:44;7.07;;;3.30;;
3133;SDS011;1577;49.912;10.924;2022-09-17T07:59:10;9.77;;;3.80;;
3133;SDS011;1577;49.912;10.924;2022-09-17T08:01:36;5.20;;;3.40;;
3133;SDS011;1577;49.912;10.924;2022-09-17T08:04:03;9.10;;;3.40;;
3133;SDS011;1577;49.912;10.924;2022-09-17T08:06:30;12.83;;;3.10;;
3133;SDS011;1577;49.912;10.924;2022-09-17T08:08:57;7.50;;;2.50;;
3133;SDS011;1577;49.912;10.924;2022-09-17T08:11:24;6.30;;;3.27;;
3133;SDS011;1577;49.912;10.924;2022-09-17T08:13:51;5.67;;;2.90;;
3133;SDS011;1577;49.912;10.924;2022-09-17T08:16:18;8.63;;;3.87;;
3133;SDS011;1577;49.912;10.924;2022-09-17T08:18:44;9.00;;;4.17;;
3133;SDS011;1577;49.912;10.924;2022-09-17T08:21:12;6.87;;;3.17;;
3133;SDS011;1577;49.912;10.924;2022-09-17T08:23:38;8.37;;;3.50;;
3133;SDS011;1577;49.912;10.924;2022-09-17T08:26:05;4.30;;;3.10;;
3133;SDS011;1577;49.912;10.924;2022-09-17T08:28:33;5.20;;;2.43;;
3133;SDS011;1577;49.912;10.924;2022-09-17T08:31:08;4.13;;;2.40;;
3133;SDS011;1577;49.912;10.924;2022-09-17T08:33:35;5.97;;;2.30;;
3133;SDS011;1577;49.912;10.924;2022-09-17T08:36:01;4.20;;;2.47;;
3133;SDS011;1577;49.912;10.924;2022-09-17T08:38:28;3.70;;;2.13;;
3133;SDS011;1577;49.912;10.924;2022-09-17T08:46:22;4.97;;;2.60;;
3133;SDS011;1577;49.912;10.924;2022-09-17T08:52:05;5.43;;;2.30;;
3133;SDS011;1577;49.912;10.924;2022-09-17T08:56:34;5.63;;;2.00;;
3133;SDS011;1577;49.912;10.924;2022-09-17T08:59:20;4.40;;;2.50;;
3133;SDS011;1577;49.912;10.924;2022-09-17T09:02:02;7.33;;;2.03;;
3133;SDS011;1577;49.912;10.924;2022-09-17T09:04:53;3.83;;;2.20;;
3133;SDS011;1577;49.912;10.924;2022-09-17T09:07:25;3.13;;;1.90;;
3133;SDS011;1577;49.912;10.924;2022-09-17T09:12:29;7.40;;;2.00;;
3133;SDS011;1577;49.912;10.924;2022-09-17T09:14:58;7.50;;;2.90;;
3133;SDS011;1577;49.912;10.924;2022-09-17T09:17:26;8.77;;;2.03;;
3133;SDS011;1577;49.912;10.924;2022-09-17T09:19:53;10.63;;;2.53;;
3133;SDS011;1577;49.912;10.924;2022-09-17T09:25:17;3.70;;;1.80;;
3133;SDS011;1577;49.912;10.924;2022-09-17T09:30:11;3.83;;;1.70;;
3133;SDS011;1577;49.912;10.924;2022-09-17T09:32:48;2.50;;;1.30;;
3133;SDS011;1577;49.912;10.924;2022-09-17T09:35:18;3.47;;;1.40;;
3133;SDS011;1577;49.912;10.924;2022-09-17T09:37:50;8.23;;;2.53;;
3133;SDS011;1577;49.912;10.924;2022-09-17T09:43:10;6.10;;;2.07;;
3133;SDS011;1577;49.912;10.924;2022-09-17T09:45:51;10.40;;;3.20;;
3133;SDS011;1577;49.912;10.924;2022-09-17T09:53:40;10.60;;;2.03;;
3133;SDS011;1577;49.912;10.924;2022-09-17T09:58:41;7.10;;;1.37;;
3133;SDS011;1577;49.912;10.924;2022-09-17T10:01:15;2.90;;;1.33;;
3133;SDS011;1577;49.912;10.924;2022-09-17T10:03:44;4.13;;;1.83;;
3133;SDS011;1577;49.912;10.924;2022-09-17T10:06:11;4.70;;;1.57;;
3133;SDS011;1577;49.912;10.924;2022-09-17T10:08:38;4.80;;;1.93;;
3133;SDS011;1577;49.912;10.924;2022-09-17T10:11:22;5.13;;;2.70;;
3133;SDS011;1577;49.912;10.924;2022-09-17T10:13:48;4.60;;;2.30;;
3133;SDS011;1577;49.912;10.924;2022-09-17T10:18:41;5.57;;;1.80;;
3133;SDS011;1577;49.912;10.924;2022-09-17T10:21:17;3.80;;;1.87;;
3133;SDS011;1577;49.912;10.924;2022-09-17T10:23:43;4.70;;;1.40;;
3133;SDS011;1577;49.912;10.924;2022-09-17T10:26:31;4.23;;;1.70;;
3133;SDS011;1577;49.912;10.924;2022-09-17T10:28:56;7.87;;;2.60;;
3133;SDS011;1577;49.912;10.924;2022-09-17T10:31:23;12.30;;;2.43;;
3133;SDS011;1577;49.912;10.924;2022-09-17T10:33:55;8.50;;;3.23;;
3133;SDS011;1577;49.912;10.924;2022-09-17T10:36:43;7.50;;;3.33;;
3133;SDS011;1577;49.912;10.924;2022-09-17T10:42:13;6.30;;;2.80;;
3133;SDS011;1577;49.912;10.924;2022-09-17T10:44:38;5.83;;;2.13;;
3133;SDS011;1577;49.912;10.924;2022-09-17T10:47:24;4.70;;;1.77;;
3133;SDS011;1577;49.912;10.924;2022-09-17T10:52:22;10.93;;;2.63;;
3133;SDS011;1577;49.912;10.924;2022-09-17T10:57:21;6.53;;;2.10;;
3133;SDS011;1577;49.912;10.924;2022-09-17T10:59:53;5.53;;;2.00;;
3133;SDS011;1577;49.912;10.924;2022-09-17T11:27:24;2.90;;;2.20;;
3133;SDS011;1577;49.912;10.924;2022-09-17T11:37:30;5.87;;;1.73;;
3133;SDS011;1577;49.912;10.924;2022-09-17T11:39:59;3.27;;;1.73;;
3133;SDS011;1577;49.912;10.924;2022-09-17T11:42:32;5.17;;;1.50;;
3133;SDS011;1577;49.912;10.924;2022-09-17T11:45:24;2.27;;;1.30;;
3133;SDS011;1577;49.912;10.924;2022-09-17T11:47:50;3.90;;;1.40;;
3133;SDS011;1577;49.912;10.924;2022-09-17T11:50:26;2.70;;;1.50;;
3133;SDS011;1577;49.912;10.924;2022-09-17T11:53:02;2.97;;;1.60;;
3133;SDS011;1577;49.912;10.924;2022-09-17T11:58:23;3.50;;;1.60;;
3133;SDS011;1577;49.912;10.924;2022-09-17T12:00:57;2.70;;;1.23;;
3133;SDS011;1577;49.912;10.924;2022-09-17T12:03:29;5.90;;;1.80;;
3133;SDS011;1577;49.912;10.924;2022-09-17T12:05:58;2.23;;;1.13;;
3133;SDS011;1577;49.912;10.924;2022-09-17T12:08:33;2.70;;;1.40;;
3133;SDS011;1577;49.912;10.924;2022-09-17T12:21:09;3.80;;;1.67;;
3133;SDS011;1577;49.912;10.924;2022-09-17T12:23:38;3.00;;;1.50;;
3133;SDS011;1577;49.912;10.924;2022-09-17T12:26:27;4.87;;;1.83;;
3133;SDS011;1577;49.912;10.924;2022-09-17T12:31:26;2.27;;;1.10;;
3133;SDS011;1577;49.912;10.924;2022-09-17T12:36:49;5.63;;;2.03;;
3133;SDS011;1577;49.912;10.924;2022-09-17T12:39:23;4.33;;;1.50;;
3133;SDS011;1577;49.912;10.924;2022-09-17T12:42:02;4.27;;;1.53;;
3133;SDS011;1577;49.912;10.924;2022-09-17T12:47:27;2.30;;;1.73;;
3133;SDS011;1577;49.912;10.924;2022-09-17T13:00:14;4.97;;;1.90;;
3133;SDS011;1577;49.912;10.924;2022-09-17T13:02:45;2.57;;;1.67;;
3133;SDS011;1577;49.912;10.924;2022-09-17T13:05:18;2.73;;;1.40;;
3133;SDS011;1577;49.912;10.924;2022-09-17T13:10:27;3.23;;;1.67;;
3133;SDS011;1577;49.912;10.924;2022-09-17T13:13:04;6.20;;;2.40;;
3133;SDS011;1577;49.912;10.924;2022-09-17T13:23:04;2.80;;;1.57;;
3133;SDS011;1577;49.912;10.924;2022-09-17T13:25:30;3.40;;;1.67;;
3133;SDS011;1577;49.912;10.924;2022-09-17T13:28:09;5.27;;;1.70;;
3133;SDS011;1577;49.912;10.924;2022-09-17T13:36:04;1.97;;;1.27;;
3133;SDS011;1577;49.912;10.924;2022-09-17T13:38:50;2.00;;;1.50;;
3133;SDS011;1577;49.912;10.924;2022-09-17T13:41:17;2.60;;;1.27;;
3133;SDS011;1577;49.912;10.924;2022-09-17T13:43:45;2.43;;;1.43;;
3133;SDS011;1577;49.912;10.924;2022-09-17T13:46:13;2.50;;;1.10;;
3133;SDS011;1577;49.912;10.924;2022-09-17T13:48:44;2.10;;;1.27;;
3133;SDS011;1577;49.912;10.924;2022-09-17T13:53:59;3.17;;;1.20;;
3133;SDS011;1577;49.912;10.924;2022-09-17T13:59:31;4.40;;;1.40;;
3133;SDS011;1577;49.912;10.924;2022-09-17T14:05:15;3.17;;;1.20;;
3133;SDS011;1577;49.912;10.924;2022-09-17T14:17:56;3.00;;;1.10;;
3133;SDS011;1577;49.912;10.924;2022-09-17T14:20:22;1.67;;;1.00;;
3133;SDS011;1577;49.912;10.924;2022-09-17T14:22:59;3.10;;;1.40;;
3133;SDS011;1577;49.912;10.924;2022-09-17T14:25:31;4.73;;;1.23;;
3133;SDS011;1577;49.912;10.924;2022-09-17T14:27:59;1.30;;;1.10;;
3133;SDS011;1577;49.912;10.924;2022-09-17T14:30:29;4.93;;;1.20;;
3133;SDS011;1577;49.912;10.924;2022-09-17T14:33:06;5.33;;;1.43;;
3133;SDS011;1577;49.912;10.924;2022-09-17T14:35:37;2.60;;;1.10;;
3133;SDS011;1577;49.912;10.924;2022-09-17T14:40:39;5.27;;;1.70;;
3133;SDS011;1577;49.912;10.924;2022-09-17T14:43:09;3.00;;;1.23;;
3133;SDS011;1577;49.912;10.924;2022-09-17T14:45:40;3.27;;;1.20;;
3133;SDS011;1577;49.912;10.924;2022-09-17T14:50:52;5.47;;;1.60;;
3133;SDS011;1577;49.912;10.924;2022-09-17T14:53:18;1.50;;;1.00;;
3133;SDS011;1577;49.912;10.924;2022-09-17T14:55:48;3.20;;;1.10;;
3133;SDS011;1577;49.912;10.924;2022-09-17T14:58:24;5.00;;;0.90;;
3133;SDS011;1577;49.912;10.924;2022-09-17T15:00:52;1.43;;;0.97;;
3133;SDS011;1577;49.912;10.924;2022-09-17T15:03:19;3.20;;;1.20;;
3133;SDS011;1577;49.912;10.924;2022-09-17T15:05:46;4.67;;;1.20;;
3133;SDS011;1577;49.912;10.924;2022-09-17T15:11:01;4.00;;;1.30;;
3133;SDS011;1577;49.912;10.924;2022-09-17T15:13:28;2.80;;;1.50;;
3133;SDS011;1577;49.912;10.924;2022-09-17T15:16:05;6.23;;;1.43;;
3133;SDS011;1577;49.912;10.924;2022-09-17T15:19:08;3.57;;;1.33;;
3133;SDS011;1577;49.912;10.924;2022-09-17T15:21:33;3.40;;;2.00;;
3133;SDS011;1577;49.912;10.924;2022-09-17T15:24:02;5.60;;;1.37;;
3133;SDS011;1577;49.912;10.924;2022-09-17T15:26:33;6.83;;;1.50;;
3133;SDS011;1577;49.912;10.924;2022-09-17T15:29:01;5.87;;;1.53;;
3133;SDS011;1577;49.912;10.924;2022-09-17T15:31:27;5.20;;;1.50;;
3133;SDS011;1577;49.912;10.924;2022-09-17T15:33:54;2.13;;;1.30;;
3133;SDS011;1577;49.912;10.924;2022-09-17T15:36:24;3.03;;;1.13;;
3133;SDS011;1577;49.912;10.924;2022-09-17T15:38:51;6.07;;;1.63;;
3133;SDS011;1577;49.912;10.924;2022-09-17T15:46:27;1.53;;;0.80;;
3133;SDS011;1577;49.912;10.924;2022-09-17T15:48:53;5.23;;;0.90;;
3133;SDS011;1577;49.912;10.924;2022-09-17T15:53:51;1.77;;;0.80;;
3133;SDS011;1577;49.912;10.924;2022-09-17T15:56:17;0.93;;;0.77;;
3133;SDS011;1577;49.912;10.924;2022-09-17T16:08:45;5.90;;;1.27;;
3133;SDS011;1577;49.912;10.924;2022-09-17T16:11:13;4.30;;;1.07;;
3133;SDS011;1577;49.912;10.924;2022-09-17T16:13:40;3.97;;;1.50;;
3133;SDS011;1577;49.912;10.924;2022-09-17T16:16:06;2.60;;;1.23;;
3133;SDS011;1577;49.912;10.924;2022-09-17T16:18:33;3.80;;;1.40;;
3133;SDS011;1577;49.912;10.924;2022-09-17T16:20:59;1.67;;;1.07;;
3133;SDS011;1577;49.912;10.924;2022-09-17T16:23:25;2.00;;;1.40;;
3133;SDS011;1577;49.912;10.924;2022-09-17T16:25:51;1.73;;;1.03;;
3133;SDS011;1577;49.912;10.924;2022-09-17T16:28:18;1.40;;;0.90;;
3133;SDS011;1577;49.912;10.924;2022-09-17T16:30:45;0.80;;;0.70;;
3133;SDS011;1577;49.912;10.924;2022-09-17T16:33:12;1.40;;;0.97;;
3133;SDS011;1577;49.912;10.924;2022-09-17T16:35:38;0.90;;;0.70;;
3133;SDS011;1577;49.912;10.924;2022-09-17T16:38:04;1.60;;;0.90;;
3133;SDS011;1577;49.912;10.924;2022-09-17T16:40:31;3.03;;;0.50;;
3133;SDS011;1577;49.912;10.924;2022-09-17T16:43:00;2.70;;;0.80;;
3133;SDS011;1577;49.912;10.924;2022-09-17T16:45:27;2.27;;;0.70;;
3133;SDS011;1577;49.912;10.924;2022-09-17T16:47:53;1.27;;;0.70;;
3133;SDS011;1577;49.912;10.924;2022-09-17T16:50:19;0.90;;;0.60;;
3133;SDS011;1577;49.912;10.924;2022-09-17T16:52:45;3.20;;;1.00;;
3133;SDS011;1577;49.912;10.924;2022-09-17T16:55:12;2.10;;;0.70;;
3133;SDS011;1577;49.912;10.924;2022-09-17T16:57:38;2.30;;;0.73;;
3133;SDS011;1577;49.912;10.924;2022-09-17T17:00:05;2.60;;;1.00;;
3133;SDS011;1577;49.912;10.924;2022-09-17T17:02:31;4.93;;;2.60;;
3133;SDS011;1577;49.912;10.924;2022-09-17T17:04:57;2.97;;;1.10;;
3133;SDS011;1577;49.912;10.924;2022-09-17T17:07:23;2.10;;;1.30;;
3133;SDS011;1577;49.912;10.924;2022-09-17T17:09:49;3.30;;;1.43;;
3133;SDS011;1577;49.912;10.924;2022-09-17T17:12:15;4.13;;;2.40;;
3133;SDS011;1577;49.912;10.924;2022-09-17T17:14:41;2.43;;;0.93;;
3133;SDS011;1577;49.912;10.924;2022-09-17T17:17:13;4.90;;;1.83;;
3133;SDS011;1577;49.912;10.924;2022-09-17T17:19:39;3.07;;;1.37;;
3133;SDS011;1577;49.912;10.924;2022-09-17T17:22:06;2.10;;;0.97;;
3133;SDS011;1577;49.912;10.924;2022-09-17T17:24:32;2.47;;;0.90;;
3133;SDS011;1577;49.912;10.924;2022-09-17T17:26:58;2.27;;;1.10;;
3133;SDS011;1577;49.912;10.924;2022-09-17T17:29:25;1.87;;;1.10;;
3133;SDS011;1577;49.912;10.924;2022-09-17T17:31:51;3.20;;;1.83;;
3133;SDS011;1577;49.912;10.924;2022-09-17T17:34:17;3.00;;;1.37;;
3133;SDS011;1577;49.912;10.924;2022-09-17T17:36:43;3.27;;;1.27;;
3133;SDS011;1577;49.912;10.924;2022-09-17T17:39:09;1.70;;;1.10;;
3133;SDS011;1577;49.912;10.924;2022-09-17T17:41:35;2.80;;;0.80;;
3133;SDS011;1577;49.912;10.924;2022-09-17T17:44:01;2.40;;;1.20;;
3133;SDS011;1577;49.912;10.924;2022-09-17T17:46:27;1.50;;;1.20;;
3133;SDS011;1577;49.912;10.924;2022-09-17T17:48:53;1.20;;;0.70;;
3133;SDS011;1577;49.912;10.924;2022-09-17T17:51:19;1.50;;;0.90;;
3133;SDS011;1577;49.912;10.924;2022-09-17T17:53:47;1.37;;;1.00;;
3133;SDS011;1577;49.912;10.924;2022-09-17T17:56:14;1.70;;;1.10;;
3133;SDS011;1577;49.912;10.924;2022-09-17T17:58:40;1.83;;;1.17;;
3133;SDS011;1577;49.912;10.924;2022-09-17T18:01:17;1.80;;;1.10;;
3133;SDS011;1577;49.912;10.924;2022-09-17T18:03:44;2.80;;;0.90;;
3133;SDS011;1577;49.912;10.924;2022-09-17T18:06:10;1.30;;;0.90;;
3133;SDS011;1577;49.912;10.924;2022-09-17T18:08:37;1.00;;;0.60;;
3133;SDS011;1577;49.912;10.924;2022-09-17T18:11:04;1.20;;;0.83;;
3133;SDS011;1577;49.912;10.924;2022-09-17T18:13:32;2.00;;;1.50;;
3133;SDS011;1577;49.912;10.924;2022-09-17T18:15:58;3.33;;;0.97;;
3133;SDS011;1577;49.912;10.924;2022-09-17T18:18:35;1.30;;;1.10;;
3133;SDS011;1577;49.912;10.924;2022-09-17T18:21:03;2.50;;;0.80;;
3133;SDS011;1577;49.912;10.924;2022-09-17T18:23:30;1.20;;;1.00;;
3133;SDS011;1577;49.912;10.924;2022-09-17T18:25:57;1.40;;;0.83;;